Time;durP1;ratioP1;P1;durP2;ratioP2;P2;SDS_P1;SDS_P2;PMS_P1;PMS_P2;Temp;Humidity;BMP_temperature;BMP_pressure;BME280_temperature;BME280_humidity;BME280_pressure;Samples;Min_cycle;Max_cycle;Signal;HPM_P1;HPM_P2
2020/12/30 00:00:22;;;;;;;24.83;14.32;;;6.70;86.30;;;;;;5053392;28;20071;-64
2020/12/30 00:02:47;;;;;;;21.30;13.70;;;6.70;86.60;;;;;;5035405;28;20473;-64
2020/12/30 00:05:13;;;;;;;26.25;14.18;;;6.70;86.80;;;;;;5053210;28;20021;-64
2020/12/30 00:07:40;;;;;;;22.88;13.50;;;6.70;86.80;;;;;;5044439;28;20013;-64
2020/12/30 00:10:08;;;;;;;16.90;10.60;;;6.80;86.70;;;;;;5053170;28;20025;-64
2020/12/30 00:12:34;;;;;;;22.27;11.95;;;6.80;86.90;;;;;;5053211;28;20408;-64
2020/12/30 00:15:00;;;;;;;16.00;10.63;;;6.70;86.70;;;;;;5053942;28;20118;-64
2020/12/30 00:17:26;;;;;;;18.20;12.65;;;6.70;86.70;;;;;;5057541;28;20025;-64
2020/12/30 00:19:52;;;;;;;22.02;14.10;;;6.60;87.50;;;;;;5062815;28;20017;-64
2020/12/30 00:22:19;;;;;;;19.63;11.38;;;6.60;87.10;;;;;;5053320;28;20033;-64
2020/12/30 00:24:44;;;;;;;21.08;11.75;;;6.60;87.50;;;;;;5052906;28;20025;-64
2020/12/30 00:27:10;;;;;;;25.73;13.68;;;6.70;87.80;;;;;;5053080;28;20021;-64
2020/12/30 00:29:36;;;;;;;27.33;13.35;;;6.70;87.70;;;;;;5052811;28;20041;-64
2020/12/30 00:32:02;;;;;;;45.15;13.80;;;6.60;87.50;;;;;;5052955;28;20102;-64
2020/12/30 00:34:28;;;;;;;43.47;13.63;;;6.60;87.60;;;;;;5051011;28;20371;-64
2020/12/30 00:36:54;;;;;;;35.17;13.75;;;6.50;87.50;;;;;;5045795;28;20033;-64
2020/12/30 00:39:19;;;;;;;37.33;12.90;;;6.50;87.60;;;;;;5046490;28;20469;-64
2020/12/30 00:41:51;;;;;;;29.67;13.18;;;6.50;87.90;;;;;;5052883;28;20025;-64
2020/12/30 00:44:17;;;;;;;22.80;12.70;;;6.40;87.80;;;;;;5053131;28;20089;-64
2020/12/30 00:46:42;;;;;;;23.85;12.30;;;6.40;87.50;;;;;;5052882;28;20060;-64
2020/12/30 00:49:08;;;;;;;28.23;13.18;;;6.30;87.20;;;;;;5052930;28;20424;-64
2020/12/30 00:51:34;;;;;;;25.00;14.38;;;6.30;87.60;;;;;;5051870;28;20033;-64
2020/12/30 00:53:59;;;;;;;24.25;12.65;;;6.30;87.80;;;;;;5052973;28;20473;-64
2020/12/30 00:56:25;;;;;;;24.70;12.23;;;6.30;87.90;;;;;;5051667;28;20079;-64
2020/12/30 00:58:51;;;;;;;20.77;12.25;;;6.30;87.90;;;;;;5049162;28;20104;-64
2020/12/30 01:01:17;;;;;;;25.73;12.82;;;6.30;88.00;;;;;;5061349;28;20080;-64
2020/12/30 01:03:42;;;;;;;23.77;11.25;;;6.30;88.10;;;;;;5053839;28;20052;-64
2020/12/30 01:06:11;;;;;;;25.50;14.00;;;6.30;87.80;;;;;;5056943;28;20009;-64
2020/12/30 01:08:37;;;;;;;24.42;13.73;;;6.20;87.50;;;;;;5064875;28;20024;-64
2020/12/30 01:11:04;;;;;;;22.25;11.82;;;6.10;87.50;;;;;;5044607;28;20083;-64
2020/12/30 01:13:30;;;;;;;24.55;12.63;;;6.20;87.70;;;;;;5056445;28;20063;-64
2020/12/30 01:15:55;;;;;;;25.27;13.95;;;6.10;87.70;;;;;;5063660;28;20052;-64
2020/12/30 01:18:21;;;;;;;25.58;13.25;;;6.10;88.10;;;;;;5058641;28;20452;-64
2020/12/30 01:20:47;;;;;;;24.13;13.82;;;6.10;88.30;;;;;;5052368;28;20021;-64
2020/12/30 01:23:12;;;;;;;22.02;13.00;;;6.20;88.40;;;;;;5045076;28;20027;-64
2020/12/30 01:25:38;;;;;;;29.77;13.07;;;6.20;88.30;;;;;;5060008;28;20029;-64
2020/12/30 01:28:04;;;;;;;21.83;13.00;;;6.10;88.20;;;;;;5060840;28;20117;-64
2020/12/30 01:30:29;;;;;;;19.00;10.90;;;6.20;88.50;;;;;;5062867;28;20123;-64
2020/12/30 01:32:55;;;;;;;27.00;14.73;;;6.20;88.40;;;;;;5064112;28;20021;-64
2020/12/30 01:35:21;;;;;;;24.08;13.25;;;6.20;88.60;;;;;;5055362;28;20025;-64
2020/12/30 01:37:46;;;;;;;31.90;14.48;;;6.10;88.60;;;;;;5041725;28;20024;-64
2020/12/30 01:40:12;;;;;;;28.27;15.63;;;6.10;88.60;;;;;;5055891;28;20032;-64
2020/12/30 01:42:44;;;;;;;26.20;14.88;;;6.10;88.70;;;;;;5055660;28;20029;-64
2020/12/30 01:45:10;;;;;;;25.90;13.43;;;6.00;88.70;;;;;;5055784;28;20017;-64
2020/12/30 01:47:36;;;;;;;32.38;15.30;;;6.00;88.90;;;;;;5056773;28;20021;-64
2020/12/30 01:50:03;;;;;;;24.77;14.63;;;6.00;89.00;;;;;;5042448;28;20096;-64
2020/12/30 01:52:31;;;;;;;33.35;15.80;;;6.00;89.10;;;;;;5055653;28;20055;-64
2020/12/30 01:54:57;;;;;;;29.00;13.98;;;6.00;89.00;;;;;;5041520;28;20020;-64
2020/12/30 01:57:23;;;;;;;25.00;14.20;;;6.00;88.90;;;;;;5055557;28;20025;-64
2020/12/30 01:59:49;;;;;;;26.98;14.82;;;5.90;88.90;;;;;;5037255;28;20457;-64
2020/12/30 02:02:15;;;;;;;21.67;14.38;;;5.90;88.90;;;;;;5055480;28;20104;-64
2020/12/30 02:04:49;;;;;;;29.77;14.63;;;5.90;89.00;;;;;;5055191;28;20033;-64
2020/12/30 02:07:19;;;;;;;30.17;16.27;;;5.90;89.30;;;;;;5055129;28;20075;-64
2020/12/30 02:09:47;;;;;;;28.95;15.52;;;5.90;89.40;;;;;;5054666;28;20481;-64
2020/12/30 02:12:14;;;;;;;25.90;14.23;;;5.90;89.50;;;;;;5036601;28;20125;-64
2020/12/30 02:14:40;;;;;;;25.77;13.88;;;5.80;89.00;;;;;;5055282;28;20033;-64
2020/12/30 02:17:12;;;;;;;29.75;15.32;;;5.80;89.40;;;;;;5056708;28;20012;-64
2020/12/30 02:19:38;;;;;;;23.02;13.23;;;5.80;89.50;;;;;;5042686;28;20027;-64
2020/12/30 02:22:05;;;;;;;22.90;13.45;;;5.70;89.40;;;;;;5055767;28;20385;-64
2020/12/30 02:24:32;;;;;;;25.80;14.38;;;5.80;89.50;;;;;;5062569;28;20032;-64
2020/12/30 02:26:59;;;;;;;24.23;14.60;;;5.80;89.30;;;;;;5055051;28;20017;-64
2020/12/30 02:29:25;;;;;;;30.42;15.05;;;5.70;89.40;;;;;;5054859;28;20041;-64
2020/12/30 02:31:51;;;;;;;30.52;14.40;;;5.70;89.50;;;;;;5054902;28;20086;-64
2020/12/30 02:34:17;;;;;;;25.50;14.73;;;5.70;89.30;;;;;;5036907;28;20025;-64
2020/12/30 02:36:43;;;;;;;25.88;14.25;;;5.60;89.20;;;;;;5037281;28;20485;-64
2020/12/30 02:39:09;;;;;;;31.45;14.68;;;5.60;89.20;;;;;;5054835;28;20029;-64
2020/12/30 02:41:35;;;;;;;24.35;15.25;;;5.60;89.20;;;;;;5060480;28;20033;-64
2020/12/30 02:44:02;;;;;;;24.80;15.02;;;5.50;89.10;;;;;;5064256;28;20029;-64
2020/12/30 02:46:28;;;;;;;30.08;15.13;;;5.50;89.50;;;;;;5057047;28;20357;-64
2020/12/30 02:48:54;;;;;;;27.98;14.75;;;5.50;89.70;;;;;;5064001;28;20104;-64
2020/12/30 02:51:20;;;;;;;29.67;15.23;;;5.50;89.80;;;;;;5054391;28;20029;-64
2020/12/30 02:53:46;;;;;;;27.55;14.00;;;5.50;90.00;;;;;;5054666;28;20087;-64
2020/12/30 02:56:11;;;;;;;30.70;15.40;;;5.50;90.00;;;;;;5054295;28;20048;-64
2020/12/30 02:58:37;;;;;;;29.05;13.48;;;5.60;90.00;;;;;;5060241;28;20381;-64
2020/12/30 03:01:12;;;;;;;33.22;15.32;;;5.60;90.00;;;;;;5054415;28;20058;-64
2020/12/30 03:03:38;;;;;;;33.53;15.45;;;5.60;90.00;;;;;;5054173;28;20424;-64
2020/12/30 03:06:04;;;;;;;43.67;15.38;;;5.60;89.80;;;;;;5054448;28;20029;-64
2020/12/30 03:08:30;;;;;;;25.90;13.40;;;5.60;89.70;;;;;;5052933;28;20036;-64
2020/12/30 03:10:56;;;;;;;32.53;14.18;;;5.60;89.80;;;;;;5054195;28;20020;-64
2020/12/30 03:13:22;;;;;;;27.73;12.98;;;5.60;89.80;;;;;;5053492;28;20107;-64
2020/12/30 03:15:47;;;;;;;27.25;13.02;;;5.60;90.10;;;;;;5053734;28;20103;-64
2020/12/30 03:18:13;;;;;;;29.00;14.88;;;5.70;90.00;;;;;;5056960;28;20037;-64
2020/12/30 03:20:39;;;;;;;30.58;14.07;;;5.60;90.10;;;;;;5053985;28;20024;-64
2020/12/30 03:23:04;;;;;;;28.70;12.43;;;5.70;90.10;;;;;;5053962;28;20036;-64
2020/12/30 03:25:30;;;;;;;19.45;11.50;;;5.70;90.10;;;;;;5053823;28;20025;-64
2020/12/30 03:27:58;;;;;;;31.33;12.35;;;5.70;90.00;;;;;;5053537;28;20528;-64
2020/12/30 03:30:25;;;;;;;42.80;13.95;;;5.80;90.10;;;;;;5053784;28;20052;-64
2020/12/30 03:32:51;;;;;;;29.75;12.13;;;5.80;90.10;;;;;;5053646;28;20024;-63
2020/12/30 03:35:18;;;;;;;36.47;12.80;;;5.80;90.00;;;;;;5056496;28;20029;-64
2020/12/30 03:37:44;;;;;;;27.13;11.20;;;5.80;90.00;;;;;;5054052;28;20045;-64
2020/12/30 03:40:11;;;;;;;26.75;12.55;;;5.80;89.80;;;;;;5053622;28;20453;-64
2020/12/30 03:42:37;;;;;;;25.13;12.45;;;5.80;90.00;;;;;;5053110;28;20021;-64
2020/12/30 03:45:03;;;;;;;32.47;12.35;;;5.90;90.10;;;;;;5053604;28;20017;-64
2020/12/30 03:47:30;;;;;;;29.13;12.25;;;5.90;90.10;;;;;;5053461;28;20028;-64
2020/12/30 03:49:56;;;;;;;38.55;13.15;;;5.90;89.90;;;;;;5053476;28;20021;-64
2020/12/30 03:52:22;;;;;;;35.78;13.27;;;5.90;90.00;;;;;;5053511;28;20127;-64
2020/12/30 03:54:48;;;;;;;38.50;14.02;;;5.90;90.10;;;;;;5053328;28;20071;-64
2020/12/30 03:57:14;;;;;;;28.88;12.93;;;5.90;90.00;;;;;;5053558;28;20028;-64
2020/12/30 03:59:40;;;;;;;30.10;11.40;;;5.90;89.70;;;;;;5051687;28;20048;-64
2020/12/30 04:02:05;;;;;;;31.50;11.93;;;5.90;89.80;;;;;;5063109;28;20044;-64
2020/12/30 04:04:31;;;;;;;44.00;14.23;;;5.90;89.60;;;;;;5053256;28;20021;-64
2020/12/30 04:06:57;;;;;;;37.55;14.38;;;5.90;89.40;;;;;;5053299;28;20023;-64
2020/12/30 04:09:23;;;;;;;37.22;11.82;;;5.80;89.10;;;;;;5057180;28;20025;-64
2020/12/30 04:11:48;;;;;;;33.40;11.27;;;5.70;89.20;;;;;;5055306;28;20086;-64
2020/12/30 04:14:14;;;;;;;33.70;10.38;;;5.70;89.40;;;;;;5053078;28;20029;-64
2020/12/30 04:16:40;;;;;;;27.45;11.80;;;5.70;89.60;;;;;;5053181;28;20032;-64
2020/12/30 04:19:05;;;;;;;42.80;13.57;;;5.60;89.70;;;;;;5048078;28;20017;-64
2020/12/30 04:21:31;;;;;;;37.03;13.48;;;5.60;89.50;;;;;;5053075;28;20029;-64
2020/12/30 04:23:57;;;;;;;39.30;13.57;;;5.60;89.30;;;;;;5053158;28;20338;-64
2020/12/30 04:26:23;;;;;;;41.38;13.32;;;5.50;89.50;;;;;;5052921;28;20076;-64
2020/12/30 04:28:49;;;;;;;55.60;13.93;;;5.50;89.60;;;;;;5060085;28;20036;-64
2020/12/30 04:31:17;;;;;;;42.08;14.13;;;5.40;89.70;;;;;;5053500;28;20013;-64
2020/12/30 04:33:42;;;;;;;44.38;14.90;;;5.40;90.00;;;;;;5053674;28;20083;-64
2020/12/30 04:36:09;;;;;;;39.13;15.13;;;5.40;89.90;;;;;;5052901;28;20025;-64
2020/12/30 04:38:36;;;;;;;46.17;15.35;;;5.30;90.00;;;;;;5054406;28;20063;-64
2020/12/30 04:41:09;;;;;;;37.00;12.35;;;5.30;90.10;;;;;;5057433;28;20381;-64
2020/12/30 04:43:37;;;;;;;36.78;13.80;;;5.30;90.10;;;;;;5057201;28;20453;-64
2020/12/30 04:46:04;;;;;;;41.35;13.18;;;5.30;90.00;;;;;;5057032;28;20074;-64
2020/12/30 04:48:33;;;;;;;46.47;13.73;;;5.20;89.90;;;;;;5057176;28;20040;-64
2020/12/30 04:50:59;;;;;;;53.63;14.50;;;5.20;90.00;;;;;;5056800;28;20037;-64
2020/12/30 04:53:25;;;;;;;49.00;14.20;;;5.10;90.20;;;;;;5056978;28;20155;-64
2020/12/30 04:55:51;;;;;;;68.38;18.05;;;5.10;89.90;;;;;;5057266;28;20111;-64
2020/12/30 04:58:20;;;;;;;47.58;15.25;;;5.10;89.90;;;;;;5056905;28;20504;-64
2020/12/30 05:00:47;;;;;;;44.97;13.85;;;5.00;89.70;;;;;;5057372;28;20097;-64
2020/12/30 05:03:14;;;;;;;52.42;16.05;;;5.00;90.00;;;;;;5056917;28;20090;-64
2020/12/30 05:05:41;;;;;;;44.70;16.15;;;5.00;90.10;;;;;;5056727;28;20045;-64
2020/12/30 05:08:14;;;;;;;49.15;17.52;;;5.00;90.20;;;;;;5056632;28;20078;-64
2020/12/30 05:10:45;;;;;;;35.85;14.63;;;5.00;90.30;;;;;;5056849;28;20025;-64
2020/12/30 05:13:11;;;;;;;45.40;16.80;;;5.00;90.40;;;;;;5055471;28;20458;-64
2020/12/30 05:15:37;;;;;;;56.78;17.25;;;5.00;90.40;;;;;;5055487;28;20110;-64
2020/12/30 05:18:05;;;;;;;53.33;17.73;;;5.00;90.30;;;;;;5055219;28;20449;-64
2020/12/30 05:20:38;;;;;;;41.20;14.77;;;5.00;90.20;;;;;;5056494;28;20044;-64
2020/12/30 05:23:05;;;;;;;30.40;12.60;;;5.00;90.20;;;;;;5056778;28;20373;-64
2020/12/30 05:25:40;;;;;;;32.53;13.05;;;4.90;90.20;;;;;;5056398;28;20023;-64
2020/12/30 05:28:08;;;;;;;34.30;13.60;;;4.90;90.30;;;;;;5047138;28;20036;-64
2020/12/30 05:30:36;;;;;;;48.15;16.73;;;4.90;90.30;;;;;;5042465;28;20100;-64
2020/12/30 05:33:03;;;;;;;34.20;13.88;;;4.90;90.30;;;;;;5047550;28;20477;-64
2020/12/30 05:35:30;;;;;;;35.22;13.90;;;4.90;90.40;;;;;;5036462;28;20034;-64
2020/12/30 05:37:56;;;;;;;48.80;15.18;;;4.80;90.40;;;;;;5035913;28;20736;-64
2020/12/30 05:40:30;;;;;;;35.67;14.93;;;4.80;90.60;;;;;;5036323;28;20041;-64
2020/12/30 05:43:16;;;;;;;47.38;17.58;;;4.90;90.60;;;;;;5030678;28;20137;-64
2020/12/30 05:45:50;;;;;;;31.17;12.85;;;4.90;90.50;;;;;;5036087;28;20040;-64
2020/12/30 05:48:17;;;;;;;38.63;14.07;;;4.90;90.50;;;;;;5024991;28;20039;-64
2020/12/30 05:50:48;;;;;;;39.28;13.65;;;4.90;90.50;;;;;;5035513;28;20025;-64
2020/12/30 05:53:15;;;;;;;31.00;14.27;;;4.90;90.50;;;;;;5035826;28;20029;-64
2020/12/30 05:55:40;;;;;;;39.17;14.52;;;4.90;90.50;;;;;;5035672;28;20061;-64
2020/12/30 05:58:13;;;;;;;47.33;15.23;;;4.90;90.40;;;;;;5034753;28;20426;-64
2020/12/30 06:00:39;;;;;;;34.63;15.63;;;4.90;90.60;;;;;;5036209;28;20472;-64
2020/12/30 06:03:06;;;;;;;38.72;14.73;;;4.90;90.60;;;;;;5035729;28;20094;-64
2020/12/30 06:05:32;;;;;;;48.40;16.73;;;5.00;90.70;;;;;;5036167;28;20029;-64
2020/12/30 06:07:58;;;;;;;37.85;14.60;;;5.00;90.60;;;;;;5036007;28;20096;-64
2020/12/30 06:10:25;;;;;;;48.30;17.42;;;5.00;90.60;;;;;;5029628;28;20064;-65
2020/12/30 06:12:53;;;;;;;41.47;15.55;;;5.00;90.80;;;;;;5023757;28;20022;-63
2020/12/30 06:15:25;;;;;;;43.67;15.80;;;5.10;90.80;;;;;;5033333;28;20079;-65
2020/12/30 06:17:51;;;;;;;;;;;5.20;91.10;;;;;;5034340;28;20060;-63
2020/12/30 06:20:22;;;;;;;40.95;16.92;;;5.10;90.60;;;;;;5033734;28;19952;-63
2020/12/30 06:22:55;;;;;;;33.05;15.27;;;5.20;90.90;;;;;;5035781;28;20036;-63
2020/12/30 06:25:24;;;;;;;42.28;14.77;;;5.40;91.40;;;;;;5018338;28;20025;-63
2020/12/30 06:27:50;;;;;;;32.20;13.57;;;5.50;91.10;;;;;;5021668;28;20033;-65
2020/12/30 06:30:16;;;;;;;40.05;14.50;;;5.60;90.70;;;;;;5042924;28;20050;-65
2020/12/30 06:32:42;;;;;;;27.33;12.55;;;5.50;90.40;;;;;;5053762;28;20028;-66
2020/12/30 06:35:09;;;;;;;29.85;13.63;;;5.50;90.20;;;;;;5067801;28;20032;-63
2020/12/30 06:37:35;;;;;;;31.73;14.23;;;5.50;90.10;;;;;;5054652;28;20112;-63
2020/12/30 06:40:17;;;;;;;32.65;11.95;;;5.50;90.20;;;;;;5062012;28;20032;-63
2020/12/30 06:42:44;;;;;;;36.97;13.43;;;5.50;90.10;;;;;;5060911;28;20040;-63
2020/12/30 06:45:13;;;;;;;41.10;13.75;;;5.40;90.10;;;;;;5056665;28;20089;-66
2020/12/30 06:47:59;;;;;;;30.30;12.85;;;5.40;90.20;;;;;;5052799;28;20027;-63
2020/12/30 06:50:25;;;;;;;30.25;12.60;;;5.50;90.20;;;;;;5037267;28;20024;-66
2020/12/30 06:52:51;;;;;;;58.03;13.75;;;5.50;90.20;;;;;;5045636;28;20032;-63
2020/12/30 06:55:16;;;;;;;31.83;13.35;;;5.50;90.00;;;;;;5041580;28;20551;-63
2020/12/30 06:57:45;;;;;;;32.50;12.80;;;5.40;90.00;;;;;;5052374;28;20100;-65
2020/12/30 07:00:34;;;;;;;35.53;13.80;;;5.50;90.10;;;;;;5053740;28;20358;-63
2020/12/30 07:03:13;;;;;;;31.80;13.75;;;5.50;90.00;;;;;;5036066;28;20116;-66
2020/12/30 07:05:40;;;;;;;46.15;14.15;;;5.50;90.10;;;;;;5039959;28;20042;-63
2020/12/30 07:08:06;;;;;;;40.70;15.40;;;5.50;90.10;;;;;;5049969;28;20028;-64
2020/12/30 07:10:38;;;;;;;26.15;13.48;;;5.50;90.20;;;;;;5054215;28;20017;-64
2020/12/30 07:13:04;;;;;;;35.70;13.15;;;5.60;90.30;;;;;;5046282;28;20116;-64
2020/12/30 07:15:30;;;;;;;31.33;13.32;;;5.70;90.40;;;;;;5047468;28;20135;-64
2020/12/30 07:17:56;;;;;;;37.28;11.80;;;5.80;90.40;;;;;;5051603;28;20496;-63
2020/12/30 07:20:24;;;;;;;28.33;11.90;;;5.80;90.20;;;;;;5046485;28;20163;-64
2020/12/30 07:22:50;;;;;;;39.38;10.82;;;5.80;90.00;;;;;;5046364;28;20046;-63
2020/12/30 07:25:17;;;;;;;31.67;10.75;;;5.80;89.70;;;;;;5032533;28;20529;-64
2020/12/30 07:27:43;;;;;;;34.92;10.10;;;5.80;89.40;;;;;;5047732;28;20033;-64
2020/12/30 07:30:09;;;;;;;32.25;10.60;;;5.80;89.40;;;;;;5041727;28;20042;-64
2020/12/30 07:32:35;;;;;;;25.55;10.18;;;5.80;89.60;;;;;;5045064;28;20087;-64
2020/12/30 07:35:02;;;;;;;29.65;9.88;;;5.80;89.90;;;;;;5058865;28;20041;-55
2020/12/30 07:37:27;;;;;;;22.63;10.35;;;5.80;90.00;;;;;;5044195;28;20044;-57
2020/12/30 07:39:54;;;;;;;30.88;11.63;;;5.80;90.00;;;;;;5042398;28;20385;-56
2020/12/30 07:42:23;;;;;;;25.35;11.90;;;5.80;89.90;;;;;;5043266;28;20078;-55
2020/12/30 07:44:57;;;;;;;19.60;12.07;;;5.80;89.90;;;;;;5051295;28;20025;-57
2020/12/30 07:47:27;;;;;;;41.78;14.88;;;5.80;90.00;;;;;;5044425;28;20044;-56
2020/12/30 07:50:00;;;;;;;38.40;16.60;;;5.80;90.20;;;;;;5047527;28;20036;-57
2020/12/30 07:52:26;;;;;;;30.95;16.00;;;5.90;90.20;;;;;;5041796;28;20485;-57
2020/12/30 07:54:51;;;;;;;36.55;19.15;;;5.90;90.20;;;;;;5045158;28;20036;-56
2020/12/30 07:57:18;;;;;;;36.75;19.52;;;6.00;90.30;;;;;;5043226;28;20983;-58
2020/12/30 07:59:48;;;;;;;40.50;19.90;;;6.00;90.50;;;;;;5049774;28;20029;-57
2020/12/30 08:02:16;;;;;;;30.23;17.77;;;6.20;90.70;;;;;;5056147;28;20036;-55
2020/12/30 08:04:44;;;;;;;29.75;15.23;;;6.20;90.70;;;;;;5048900;28;20029;-56
2020/12/30 08:07:11;;;;;;;26.63;15.15;;;6.40;90.80;;;;;;5058136;28;20029;-56
2020/12/30 08:09:41;;;;;;;31.42;15.95;;;6.50;90.80;;;;;;5051843;28;20096;-56
2020/12/30 08:12:09;;;;;;;23.95;14.10;;;6.50;90.60;;;;;;5046848;28;20029;-57
2020/12/30 08:14:39;;;;;;;30.55;14.43;;;6.60;90.40;;;;;;5048024;28;20040;-56
2020/12/30 08:17:10;;;;;;;29.73;15.60;;;6.60;90.30;;;;;;5048331;28;20107;-58
2020/12/30 08:19:42;;;;;;;45.85;16.23;;;6.60;90.20;;;;;;5042600;28;20033;-55
2020/12/30 08:22:09;;;;;;;25.80;13.48;;;6.70;90.30;;;;;;5042747;28;20421;-58
2020/12/30 08:24:50;;;;;;;29.00;14.80;;;6.70;90.20;;;;;;5047470;28;20479;-58
2020/12/30 08:27:18;;;;;;;27.23;15.33;;;6.70;90.30;;;;;;5047816;28;20061;-56
2020/12/30 08:29:45;;;;;;;34.65;15.82;;;6.70;90.60;;;;;;5045443;28;20658;-56
2020/12/30 08:32:33;;;;;;;24.75;13.85;;;6.80;90.70;;;;;;5044248;28;20363;-57
2020/12/30 08:35:13;;;;;;;22.17;13.00;;;6.90;90.70;;;;;;5046383;28;20032;-57
2020/12/30 08:37:46;;;;;;;26.90;14.95;;;7.10;90.70;;;;;;5045673;28;20032;-55
2020/12/30 08:40:25;;;;;;;23.33;14.35;;;7.10;90.80;;;;;;5052997;28;20548;-56
2020/12/30 08:42:54;;;;;;;21.73;11.32;;;7.30;90.80;;;;;;5045708;28;20021;-58
2020/12/30 08:45:21;;;;;;;18.00;9.45;;;7.30;90.70;;;;;;5063914;28;20028;-54
2020/12/30 08:47:53;;;;;;;21.90;7.88;;;7.40;90.50;;;;;;5051381;28;20021;-55
2020/12/30 08:50:23;;;;;;;18.85;7.18;;;7.40;90.30;;;;;;5047794;28;20032;-57
2020/12/30 08:52:50;;;;;;;18.73;6.93;;;7.50;90.00;;;;;;5044903;28;20055;-55
2020/12/30 08:55:16;;;;;;;15.10;7.22;;;7.40;89.90;;;;;;5048158;28;20033;-57
2020/12/30 08:57:43;;;;;;;17.10;7.03;;;7.40;90.10;;;;;;5051775;28;20033;-54
2020/12/30 09:00:16;;;;;;;11.60;5.70;;;7.50;90.20;;;;;;5047340;28;20396;-55
2020/12/30 09:02:42;;;;;;;22.67;6.57;;;7.50;90.10;;;;;;5029388;28;20021;-57
2020/12/30 09:05:08;;;;;;;10.82;6.63;;;7.50;89.60;;;;;;5050330;28;20021;-55
2020/12/30 09:07:34;;;;;;;10.63;6.95;;;7.50;89.60;;;;;;5041020;28;20024;-59
2020/12/30 09:10:11;;;;;;;11.32;6.28;;;7.50;89.50;;;;;;5045259;28;20025;-58
2020/12/30 09:12:38;;;;;;;13.13;8.27;;;7.50;89.60;;;;;;5042370;28;20020;-58
2020/12/30 09:15:07;;;;;;;12.70;8.50;;;7.60;90.10;;;;;;5051132;28;20032;-56
2020/12/30 09:17:34;;;;;;;17.95;12.23;;;7.70;90.30;;;;;;5039957;28;20729;-57
2020/12/30 09:20:10;;;;;;;18.60;10.27;;;7.80;90.50;;;;;;5040815;28;20040;-57
2020/12/30 09:22:37;;;;;;;15.05;10.10;;;7.90;90.50;;;;;;5040405;28;20049;-58
2020/12/30 09:25:04;;;;;;;23.48;13.70;;;8.10;90.90;;;;;;5044875;28;20044;-59
2020/12/30 09:27:36;;;;;;;20.88;14.10;;;8.30;91.00;;;;;;5050920;28;20041;-59
2020/12/30 09:30:13;;;;;;;13.75;10.48;;;8.40;90.90;;;;;;5049689;28;20527;-57
2020/12/30 09:32:41;;;;;;;9.50;7.32;;;8.60;90.50;;;;;;5053348;28;20044;-58
2020/12/30 09:35:09;;;;;;;10.05;6.20;;;8.60;89.90;;;;;;5055301;28;20029;-55
2020/12/30 09:37:35;;;;;;;17.55;6.63;;;8.60;88.50;;;;;;5054841;28;20093;-54
2020/12/30 09:40:13;;;;;;;10.00;5.28;;;8.40;87.20;;;;;;5049814;28;20037;-56
2020/12/30 09:42:40;;;;;;;14.18;5.30;;;8.20;85.70;;;;;;5052992;28;20334;-58
2020/12/30 09:45:08;;;;;;;13.73;5.40;;;7.90;84.80;;;;;;5053848;28;20083;-57
2020/12/30 09:47:35;;;;;;;12.63;5.60;;;7.60;85.20;;;;;;5058808;28;20033;-57
2020/12/30 09:50:01;;;;;;;8.55;5.50;;;7.40;86.10;;;;;;5049803;28;20078;-58
2020/12/30 09:52:32;;;;;;;10.93;5.47;;;7.40;87.50;;;;;;5050038;28;20029;-59
2020/12/30 09:54:58;;;;;;;7.03;5.15;;;7.30;86.70;;;;;;5048468;28;20393;-57
2020/12/30 09:57:24;;;;;;;8.30;5.65;;;7.20;87.00;;;;;;5050002;28;20035;-56
2020/12/30 09:59:50;;;;;;;10.25;5.30;;;7.20;86.90;;;;;;5047509;28;20118;-58
2020/12/30 10:02:15;;;;;;;8.95;4.75;;;7.10;87.20;;;;;;5042782;28;21103;-58
2020/12/30 10:04:41;;;;;;;8.68;4.97;;;7.10;86.70;;;;;;5041679;28;20021;-58
2020/12/30 10:07:07;;;;;;;6.20;4.38;;;7.00;86.90;;;;;;5049339;28;20462;-58
2020/12/30 10:09:33;;;;;;;7.53;4.90;;;6.90;86.60;;;;;;5049018;28;20043;-57
2020/12/30 10:11:58;;;;;;;6.85;4.50;;;6.80;86.60;;;;;;5052127;28;20028;-58
2020/12/30 10:14:24;;;;;;;10.60;5.25;;;6.80;86.90;;;;;;5051118;28;20033;-55
2020/12/30 10:16:50;;;;;;;10.07;5.00;;;6.70;87.00;;;;;;5040935;28;20661;-56
2020/12/30 10:19:16;;;;;;;7.68;4.90;;;6.70;87.00;;;;;;5048694;28;20371;-57
2020/12/30 10:21:42;;;;;;;14.77;5.50;;;6.60;87.00;;;;;;5040168;28;20382;-55
2020/12/30 10:24:07;;;;;;;10.57;5.93;;;6.60;87.30;;;;;;5043272;28;20037;-56
2020/12/30 10:26:33;;;;;;;9.90;5.63;;;6.60;87.50;;;;;;5047974;28;20192;-56
2020/12/30 10:29:00;;;;;;;11.15;5.25;;;6.50;87.60;;;;;;5046015;28;20047;-57
2020/12/30 10:31:25;;;;;;;9.43;4.70;;;6.60;87.30;;;;;;5047355;28;20021;-57
2020/12/30 10:33:52;;;;;;;8.88;5.45;;;6.50;87.10;;;;;;5050727;28;20032;-60
2020/12/30 10:36:18;;;;;;;8.25;5.20;;;6.50;87.30;;;;;;5043499;28;20530;-57
2020/12/30 10:38:44;;;;;;;9.52;5.10;;;6.50;87.90;;;;;;5047978;28;20025;-55
2020/12/30 10:41:16;;;;;;;8.93;5.22;;;6.60;88.20;;;;;;5046386;28;20026;-57
2020/12/30 10:43:42;;;;;;;8.32;5.28;;;6.70;87.90;;;;;;5044966;28;20113;-57
2020/12/30 10:46:16;;;;;;;8.82;4.97;;;6.70;86.90;;;;;;5048556;28;20021;-57
2020/12/30 10:48:48;;;;;;;7.28;5.32;;;6.60;86.50;;;;;;5047530;28;20067;-55
2020/12/30 10:51:16;;;;;;;7.13;4.90;;;6.60;86.70;;;;;;5028781;28;20101;-57
2020/12/30 10:53:42;;;;;;;7.28;5.20;;;6.60;87.10;;;;;;5049062;28;20039;-57
2020/12/30 10:56:12;;;;;;;8.43;5.30;;;6.60;87.50;;;;;;5047181;28;20503;-58
2020/12/30 10:58:38;;;;;;;8.65;5.20;;;6.70;87.40;;;;;;5045273;28;20033;-58
2020/12/30 11:01:11;;;;;;;8.80;5.45;;;6.80;87.20;;;;;;5044290;28;20115;-58
2020/12/30 11:03:38;;;;;;;6.50;4.90;;;6.80;87.50;;;;;;5043596;28;20631;-56
2020/12/30 11:06:04;;;;;;;7.30;5.53;;;6.90;87.60;;;;;;5040348;28;20033;-58
2020/12/30 11:08:30;;;;;;;8.40;6.05;;;6.90;87.30;;;;;;5044674;28;20030;-58
2020/12/30 11:10:57;;;;;;;13.88;8.25;;;7.00;87.70;;;;;;5045558;28;20021;-55
2020/12/30 11:13:24;;;;;;;14.95;9.80;;;7.00;88.80;;;;;;5050045;28;20445;-58
2020/12/30 11:15:49;;;;;;;10.15;6.88;;;7.20;90.10;;;;;;5042034;28;20112;-58
2020/12/30 11:18:15;;;;;;;10.68;6.43;;;7.40;90.10;;;;;;5043569;28;20113;-58
2020/12/30 11:20:41;;;;;;;8.27;5.95;;;7.60;90.00;;;;;;5045238;28;20127;-57
2020/12/30 11:23:07;;;;;;;10.45;6.88;;;7.70;89.00;;;;;;5050158;28;20132;-58
2020/12/30 11:25:32;;;;;;;9.52;7.32;;;7.80;89.10;;;;;;5045238;28;20021;-57
2020/12/30 11:27:58;;;;;;;12.18;7.68;;;8.00;89.40;;;;;;5043699;28;20096;-57
2020/12/30 11:30:24;;;;;;;8.40;6.45;;;8.10;89.30;;;;;;5047217;28;20053;-56
2020/12/30 11:32:50;;;;;;;8.85;6.55;;;8.20;88.10;;;;;;5042061;28;20034;-57
2020/12/30 11:35:16;;;;;;;8.80;6.40;;;8.20;87.30;;;;;;5052621;28;20029;-58
2020/12/30 11:37:41;;;;;;;10.57;7.32;;;8.30;87.60;;;;;;5052345;28;20063;-57
2020/12/30 11:40:07;;;;;;;12.82;7.75;;;8.30;88.80;;;;;;5052727;28;20033;-57
2020/12/30 11:42:33;;;;;;;15.45;9.27;;;8.40;90.20;;;;;;5055123;28;20112;-57
2020/12/30 11:44:59;;;;;;;16.67;8.45;;;8.60;90.90;;;;;;5051099;28;20025;-58
2020/12/30 11:47:25;;;;;;;13.10;8.35;;;8.90;91.20;;;;;;5048095;28;20473;-58
2020/12/30 11:49:52;;;;;;;13.30;8.55;;;9.20;91.30;;;;;;5047329;28;20029;-58
2020/12/30 11:52:18;;;;;;;13.13;8.60;;;9.40;91.20;;;;;;5044496;28;20033;-59
2020/12/30 11:54:44;;;;;;;13.98;8.23;;;9.70;91.10;;;;;;5039704;28;20025;-58
2020/12/30 11:57:10;;;;;;;13.45;8.55;;;9.90;91.00;;;;;;5047609;28;20037;-58
2020/12/30 11:59:36;;;;;;;14.60;8.98;;;10.10;90.80;;;;;;5041135;28;20037;-58
2020/12/30 12:02:01;;;;;;;12.88;8.40;;;10.20;90.60;;;;;;5044045;28;20080;-58
2020/12/30 12:04:27;;;;;;;13.23;8.23;;;10.40;90.50;;;;;;5047389;28;20371;-58
2020/12/30 12:07:00;;;;;;;11.98;8.23;;;10.50;90.40;;;;;;5042254;28;20033;-58
2020/12/30 12:09:27;;;;;;;13.18;7.90;;;10.60;90.30;;;;;;5047957;28;20040;-57
2020/12/30 12:11:53;;;;;;;13.52;8.45;;;10.70;88.60;;;;;;5044051;28;20107;-58
2020/12/30 12:14:19;;;;;;;14.10;8.13;;;10.60;87.20;;;;;;5048560;28;20036;-58
2020/12/30 12:16:53;;;;;;;13.15;8.77;;;10.40;86.80;;;;;;5043109;28;20021;-58
2020/12/30 12:19:19;;;;;;;12.82;7.50;;;10.30;86.80;;;;;;5042960;28;20119;-57
2020/12/30 12:21:45;;;;;;;11.88;7.60;;;10.10;87.10;;;;;;5044394;28;20045;-55
2020/12/30 12:24:12;;;;;;;11.40;7.78;;;10.10;87.50;;;;;;5046638;28;20032;-60
2020/12/30 12:26:38;;;;;;;11.40;7.93;;;9.90;87.20;;;;;;5047422;28;20480;-59
2020/12/30 12:29:36;;;;;;;10.40;7.22;;;9.90;86.80;;;;;;5037716;28;20076;-55
2020/12/30 12:32:04;;;;;;;10.40;7.30;;;9.80;87.10;;;;;;5017840;28;20034;-57
2020/12/30 12:34:31;;;;;;;11.75;7.90;;;9.60;87.10;;;;;;5025861;28;20075;-57
2020/12/30 12:36:57;;;;;;;10.27;6.80;;;9.50;86.60;;;;;;5032922;28;20030;-56
2020/12/30 12:39:23;;;;;;;10.23;7.35;;;9.40;86.50;;;;;;5024743;28;20040;-57
2020/12/30 12:41:53;;;;;;;11.63;7.40;;;9.30;85.90;;;;;;5029294;28;20365;-56